createdAt,value
2022-07-26T00:02:21.431Z,66184.50
2022-07-26T00:04:47.914Z,66184.00
2022-07-26T00:07:14.406Z,66187.19
2022-07-26T00:09:44.977Z,66177.06
2022-07-26T00:14:40.564Z,66172.03
2022-07-26T00:17:08.082Z,66166.63
2022-07-26T00:19:34.446Z,66162.56
2022-07-26T00:22:19.505Z,66146.53
2022-07-26T00:24:45.884Z,66158.81
2022-07-26T00:27:12.271Z,66155.28
2022-07-26T00:29:38.624Z,66158.47
2022-07-26T00:34:31.685Z,66125.72
2022-07-26T00:36:58.054Z,66135.75
2022-07-26T00:39:24.539Z,66112.72
2022-07-26T00:41:51.159Z,66118.63
2022-07-26T00:44:17.552Z,66118.28
2022-07-26T00:46:44.474Z,66109.13
2022-07-26T00:51:38.705Z,66098.53
2022-07-26T00:54:06.188Z,66109.34
2022-07-26T00:59:00.957Z,66096.84
2022-07-26T01:01:27.368Z,66122.81
2022-07-26T01:03:54.419Z,66100.22
2022-07-26T01:06:25.318Z,66098.91
2022-07-26T01:08:53.706Z,66098.53
2022-07-26T01:11:20.107Z,66086.81
2022-07-26T01:13:50.493Z,66090.41
2022-07-26T01:16:17.648Z,66082.75
2022-07-26T01:18:44.521Z,66087.22
2022-07-26T01:23:41.172Z,66093.91
2022-07-26T01:26:08.203Z,66086.81
2022-07-26T01:28:40.434Z,66095.41
2022-07-26T01:31:07.955Z,66084.59
2022-07-26T01:33:34.943Z,66095.72
2022-07-26T01:36:01.793Z,66096.38
2022-07-26T01:38:28.429Z,66089.59
2022-07-26T01:40:54.986Z,66094.63
2022-07-26T01:43:21.422Z,66097.81
2022-07-26T01:53:07.000Z,66101.72
2022-07-26T01:55:34.436Z,66094.06
2022-07-26T02:00:27.333Z,66092.78
2022-07-26T02:05:20.275Z,66090.72
2022-07-26T02:07:46.679Z,66097.41
2022-07-26T02:10:14.649Z,66090.00
2022-07-26T02:12:41.711Z,66084.03
2022-07-26T02:15:10.056Z,66103.00
2022-07-26T02:17:36.480Z,66097.25
2022-07-26T02:20:03.889Z,66098.91
2022-07-26T02:22:30.441Z,66092.22
2022-07-26T02:27:28.083Z,66088.47
2022-07-26T02:29:54.433Z,66086.66
2022-07-26T02:32:20.801Z,66094.47
2022-07-26T02:37:13.598Z,66080.66
2022-07-26T02:39:40.079Z,66077.34
2022-07-26T02:42:06.528Z,66081.06
2022-07-26T02:44:34.743Z,66077.72
2022-07-26T02:47:02.228Z,66081.06
2022-07-26T02:51:54.902Z,66088.31
2022-07-26T02:59:13.917Z,66069.91
2022-07-26T03:01:40.445Z,66072.53
2022-07-26T03:04:09.772Z,66071.03
2022-07-26T03:06:36.485Z,66074.03
2022-07-26T03:09:03.123Z,66069.03
2022-07-26T03:11:29.640Z,66052.78
2022-07-26T03:13:56.006Z,66054.88
2022-07-26T03:16:26.093Z,66062.50
2022-07-26T03:18:55.698Z,66057.66
2022-07-26T03:21:22.191Z,66055.22
2022-07-26T03:23:48.650Z,66067.03
2022-07-26T03:28:42.538Z,66046.47
2022-07-26T03:31:09.058Z,66051.88
2022-07-26T03:33:35.529Z,66051.00
2022-07-26T03:36:02.001Z,66035.31
2022-07-26T03:40:54.819Z,66019.94
2022-07-26T03:45:50.273Z,65995.16
2022-07-26T03:50:43.099Z,65977.34
2022-07-26T03:53:09.497Z,65972.31
2022-07-26T03:55:54.657Z,65976.22
2022-07-26T03:58:22.162Z,65977.50
2022-07-26T04:00:48.582Z,65956.88
2022-07-26T04:03:15.049Z,65945.72
2022-07-26T04:05:41.415Z,65940.16
2022-07-26T04:08:15.464Z,65937.56
2022-07-26T04:10:45.706Z,65933.44
2022-07-26T04:13:12.068Z,65935.75
2022-07-26T04:15:38.408Z,65931.22
2022-07-26T04:18:04.862Z,65932.41
2022-07-26T04:20:31.210Z,65923.81
2022-07-26T04:22:57.584Z,65941.22
2022-07-26T04:25:24.170Z,65926.03
2022-07-26T04:27:50.536Z,65937.97
2022-07-26T04:35:13.481Z,65918.81
2022-07-26T04:37:42.550Z,65918.81
2022-07-26T04:40:10.672Z,65917.28
2022-07-26T04:42:39.343Z,65924.94
2022-07-26T04:45:08.590Z,65921.56
2022-07-26T04:50:03.827Z,65924.53
2022-07-26T04:52:30.225Z,65920.31
2022-07-26T04:54:56.581Z,65910.38
2022-07-26T04:57:23.479Z,65913.97
2022-07-26T05:00:03.347Z,65921.56
2022-07-26T05:02:36.631Z,65911.94
2022-07-26T05:05:04.929Z,65914.91
2022-07-26T05:07:48.390Z,65903.34
2022-07-26T05:10:16.377Z,65901.13
2022-07-26T05:12:43.042Z,65916.72
2022-07-26T05:15:13.774Z,65923.09
2022-07-26T05:17:43.088Z,65911.16
2022-07-26T05:20:13.724Z,65915.63
2022-07-26T05:25:07.205Z,65931.22
2022-07-26T05:27:34.035Z,65924.19
2022-07-26T05:30:00.656Z,65923.81
2022-07-26T05:32:28.093Z,65918.41
2022-07-26T05:37:21.060Z,65930.13
2022-07-26T05:39:47.545Z,65939.09
2022-07-26T05:42:13.964Z,65932.72
2022-07-26T05:44:42.517Z,65942.59
2022-07-26T05:47:09.914Z,65939.41
2022-07-26T05:49:40.059Z,65943.34
2022-07-26T05:52:08.001Z,65942.19
2022-07-26T05:54:34.570Z,65942.78
2022-07-26T05:57:00.945Z,65952.09
2022-07-26T05:59:27.666Z,65957.28
2022-07-26T06:04:25.961Z,65961.75
2022-07-26T06:06:54.437Z,65970.31
2022-07-26T06:14:14.467Z,65972.88
2022-07-26T06:16:41.334Z,65977.50
2022-07-26T06:19:07.807Z,65982.59
2022-07-26T06:21:34.169Z,65998.56
2022-07-26T06:24:00.552Z,65993.66
2022-07-26T06:26:26.920Z,65998.13
2022-07-26T06:28:53.315Z,65999.25
2022-07-26T06:31:19.755Z,66001.47
2022-07-26T06:33:46.426Z,66015.97
2022-07-26T06:36:12.889Z,66020.09
2022-07-26T06:38:39.285Z,66020.41
2022-07-26T06:41:05.837Z,66022.09
2022-07-26T06:43:32.273Z,66017.06
2022-07-26T06:45:58.696Z,66012.59
2022-07-26T06:50:51.647Z,66010.38
2022-07-26T06:53:18.098Z,66000.13
2022-07-26T06:58:12.427Z,66031.81
2022-07-26T07:00:38.945Z,66028.22
2022-07-26T07:03:05.410Z,66054.66
2022-07-26T07:10:25.469Z,66071.53
2022-07-26T07:12:51.847Z,66088.47
2022-07-26T07:15:18.269Z,66089.44
2022-07-26T07:17:45.245Z,66081.00
2022-07-26T07:20:12.994Z,66090.72
2022-07-26T07:22:39.404Z,66091.84
2022-07-26T07:25:06.285Z,66098.84
2022-07-26T07:27:33.126Z,66095.59
2022-07-26T07:29:59.752Z,66095.59
2022-07-26T07:32:26.382Z,66095.59
2022-07-26T07:34:52.978Z,66111.19
2022-07-26T07:42:18.167Z,66162.56
2022-07-26T07:44:44.619Z,66170.63
2022-07-26T07:47:11.194Z,66175.41
2022-07-26T07:54:30.584Z,66183.69
2022-07-26T07:59:24.241Z,66188.25
2022-07-26T08:04:17.236Z,66181.69
2022-07-26T08:21:30.591Z,66241.84
2022-07-26T08:23:57.858Z,66230.13
2022-07-26T08:26:24.682Z,66217.28
2022-07-26T08:28:59.626Z,66212.19
2022-07-26T08:31:28.154Z,66201.25
2022-07-26T08:33:55.800Z,66205.72
2022-07-26T08:36:22.269Z,66202.75
2022-07-26T08:41:17.375Z,66205.56
2022-07-26T08:43:51.052Z,66211.94
2022-07-26T08:46:25.369Z,66205.00
2022-07-26T08:48:53.085Z,66213.75
2022-07-26T08:51:22.493Z,66225.66
2022-07-26T08:53:50.178Z,66262.19
2022-07-26T08:56:16.534Z,66281.53
2022-07-26T08:58:43.770Z,66269.94
2022-07-26T09:01:12.849Z,66252.63
2022-07-26T09:03:40.741Z,66237.53
2022-07-26T09:06:14.906Z,66227.91
2022-07-26T09:08:42.111Z,66220.63
2022-07-26T09:13:51.897Z,66208.19
2022-07-26T09:16:18.981Z,66208.34
2022-07-26T09:21:30.922Z,66212.81
2022-07-26T09:23:58.530Z,66208.34
2022-07-26T09:29:12.887Z,66214.16
2022-07-26T09:31:39.951Z,66226.94
2022-07-26T09:34:07.377Z,66237.31
2022-07-26T09:36:51.166Z,66265.25
2022-07-26T09:42:04.822Z,66329.59
2022-07-26T09:49:41.993Z,66380.41
2022-07-26T09:59:34.490Z,66386.63
2022-07-26T10:02:01.218Z,66377.06
2022-07-26T10:04:27.666Z,66385.44
2022-07-26T10:06:54.353Z,66382.88
2022-07-26T10:09:22.843Z,66376.50
2022-07-26T10:14:45.702Z,66316.34
2022-07-26T10:17:31.479Z,66277.53
2022-07-26T10:22:33.929Z,66230.13
2022-07-26T10:25:18.631Z,66219.66
2022-07-26T10:27:50.738Z,66197.19
2022-07-26T10:30:17.070Z,66177.06
2022-07-26T10:33:03.829Z,66161.03
2022-07-26T10:35:36.268Z,66158.81
2022-07-26T10:38:08.461Z,66138.53
2022-07-26T10:40:35.969Z,66129.75
2022-07-26T10:48:59.766Z,66089.84
2022-07-26T10:54:09.392Z,66071.03
2022-07-26T10:59:03.599Z,66053.91
2022-07-26T11:01:34.849Z,66065.13
2022-07-26T11:04:01.468Z,66072.72
2022-07-26T11:08:56.162Z,66093.72
2022-07-26T11:16:41.256Z,66097.25
2022-07-26T11:19:24.484Z,66112.31
2022-07-26T11:21:55.936Z,66139.81
2022-07-26T11:24:22.540Z,66137.03
2022-07-26T11:29:17.496Z,66157.16
2022-07-26T11:31:50.673Z,66170.06
2022-07-26T11:34:28.511Z,66173.19
2022-07-26T11:36:57.320Z,66175.97
2022-07-26T11:39:29.703Z,66178.91
2022-07-26T11:46:53.926Z,66179.41
2022-07-26T11:52:02.289Z,66217.13
2022-07-26T11:54:31.297Z,66206.13
2022-07-26T11:57:00.406Z,66207.94
2022-07-26T12:01:58.531Z,66210.56
2022-07-26T12:06:55.144Z,66255.19
2022-07-26T12:09:41.516Z,66269.25
2022-07-26T12:14:38.512Z,66256.94
2022-07-26T12:17:15.500Z,66232.81
2022-07-26T12:19:43.200Z,66239.22
2022-07-26T12:27:22.008Z,66269.94
2022-07-26T12:30:13.211Z,66276.97
2022-07-26T12:35:14.029Z,66307.81
2022-07-26T12:37:46.407Z,66297.66
2022-07-26T12:40:15.936Z,66299.97
2022-07-26T12:42:44.756Z,66295.13
2022-07-26T12:59:58.153Z,66302.44
2022-07-26T13:02:25.555Z,66282.25
2022-07-26T13:07:26.207Z,66282.09
2022-07-26T13:10:21.497Z,66269.94
2022-07-26T13:12:40.205Z,66258.56
2022-07-26T13:19:59.642Z,66272.69
2022-07-26T13:22:26.042Z,66281.06
2022-07-26T13:27:20.234Z,66316.19
2022-07-26T13:29:46.608Z,66316.66
2022-07-26T13:37:08.091Z,66351.56
2022-07-26T13:39:35.041Z,66345.41
2022-07-26T13:46:54.107Z,66329.75
2022-07-26T13:49:20.569Z,66325.69
2022-07-26T13:51:59.309Z,66320.00
2022-07-26T13:56:54.385Z,66329.59
2022-07-26T13:59:20.811Z,66321.22
2022-07-26T14:06:41.841Z,66321.78
2022-07-26T14:09:11.036Z,66320.63
2022-07-26T14:11:38.404Z,66315.63
2022-07-26T14:21:29.588Z,66306.28
2022-07-26T14:29:03.773Z,66303.50
2022-07-26T14:36:25.372Z,66307.94
2022-07-26T14:38:51.858Z,66310.59
2022-07-26T14:43:45.249Z,66271.88
2022-07-26T14:48:54.144Z,66251.50
2022-07-26T14:51:21.545Z,66253.72
2022-07-26T14:56:14.514Z,66239.75
2022-07-26T14:58:40.949Z,66235.72
2022-07-26T15:01:07.639Z,66226.94
2022-07-26T15:03:34.227Z,66216.63
2022-07-26T15:06:00.642Z,66222.22
2022-07-26T15:08:27.080Z,66231.25
2022-07-26T15:13:19.951Z,66216.06
2022-07-26T15:15:46.329Z,66221.75
2022-07-26T15:18:12.716Z,66221.56
2022-07-26T15:23:07.944Z,66211.28
2022-07-26T15:32:56.474Z,66234.03
2022-07-26T15:40:16.045Z,66259.34
2022-07-26T15:45:12.000Z,66255.94
2022-07-26T15:48:00.061Z,66259.91
2022-07-26T15:52:52.784Z,66256.38
2022-07-26T15:57:46.467Z,66249.59
2022-07-26T16:00:13.855Z,66238.41
2022-07-26T16:07:34.348Z,66219.41
2022-07-26T16:10:01.526Z,66217.69
2022-07-26T16:12:29.252Z,66207.94
2022-07-26T16:17:21.950Z,66200.53
2022-07-26T16:19:48.667Z,66201.06
2022-07-26T16:22:15.167Z,66201.25
2022-07-26T16:27:07.822Z,66189.03
2022-07-26T16:29:34.239Z,66168.16
2022-07-26T16:34:28.261Z,66139.66
2022-07-26T16:41:47.255Z,66097.41
2022-07-26T16:46:40.018Z,66080.13
2022-07-26T16:49:06.495Z,66074.53
2022-07-26T16:51:32.979Z,66077.72
2022-07-26T16:53:59.504Z,66076.03
2022-07-26T16:56:25.910Z,66072.72
2022-07-26T17:06:11.738Z,66076.03
2022-07-26T17:08:38.331Z,66073.19
2022-07-26T17:11:04.736Z,66082.34
2022-07-26T17:13:31.170Z,66079.88
2022-07-26T17:15:57.676Z,66089.59
2022-07-26T17:18:24.193Z,66082.28
2022-07-26T17:20:50.739Z,66090.16
2022-07-26T17:25:45.412Z,66099.88
2022-07-26T17:33:04.830Z,66096.84
2022-07-26T17:35:31.504Z,66101.88
2022-07-26T17:37:57.899Z,66103.94
2022-07-26T17:40:25.840Z,66106.19
2022-07-26T17:42:53.384Z,66097.34
2022-07-26T17:45:19.858Z,66109.13
2022-07-26T17:55:25.842Z,66102.44
2022-07-26T17:57:52.576Z,66103.00
2022-07-26T18:00:21.437Z,66095.09
2022-07-26T18:07:41.304Z,66106.03
2022-07-26T18:15:00.605Z,66091.03
2022-07-26T18:19:53.286Z,66089.38
2022-07-26T18:22:19.647Z,66099.31
2022-07-26T18:24:46.312Z,66093.50
2022-07-26T18:29:39.065Z,66093.34
2022-07-26T18:32:05.872Z,66086.81
2022-07-26T18:34:32.293Z,66086.25
2022-07-26T18:39:25.111Z,66079.88
2022-07-26T18:44:25.444Z,66083.47
2022-07-26T18:49:20.068Z,66086.25
2022-07-26T18:51:48.471Z,66084.03
2022-07-26T18:54:15.855Z,66080.66
2022-07-26T18:59:09.036Z,66077.34
2022-07-26T19:01:35.728Z,66067.84
2022-07-26T19:06:34.590Z,66067.69
2022-07-26T19:09:01.238Z,66070.16
2022-07-26T19:16:22.188Z,66058.75
2022-07-26T19:23:45.568Z,66057.09
2022-07-26T19:26:11.924Z,66049.25
2022-07-26T19:28:38.305Z,66043.13
2022-07-26T19:33:31.213Z,66040.50
2022-07-26T19:35:58.938Z,66039.78
2022-07-26T19:38:25.452Z,66034.59
2022-07-26T19:43:19.205Z,66034.19
2022-07-26T19:45:48.063Z,66034.34
2022-07-26T19:48:14.428Z,66028.72
2022-07-26T19:50:41.193Z,66031.25
2022-07-26T19:55:33.832Z,66024.16
2022-07-26T19:58:00.177Z,66023.84
2022-07-26T20:02:54.412Z,66014.28
2022-07-26T20:10:15.244Z,66008.00
2022-07-26T20:12:42.589Z,66004.81
2022-07-26T20:17:38.979Z,66016.38
2022-07-26T20:20:07.498Z,66004.81
2022-07-26T20:27:26.739Z,65984.59
2022-07-26T20:34:53.254Z,65982.59
2022-07-26T20:37:19.665Z,65976.22
2022-07-26T20:39:46.831Z,65956.88
2022-07-26T20:42:21.551Z,65958.63
2022-07-26T20:44:48.663Z,65954.50
2022-07-26T20:47:15.130Z,65957.28
2022-07-26T20:49:41.518Z,65938.44
2022-07-26T20:52:08.110Z,65939.94
2022-07-26T20:54:34.572Z,65946.13
2022-07-26T20:57:00.948Z,65935.50
2022-07-26T21:01:58.631Z,65927.72
2022-07-26T21:04:25.014Z,65924.94
2022-07-26T21:06:51.414Z,65922.16
2022-07-26T21:09:19.096Z,65913.22
2022-07-26T21:14:12.005Z,65911.16
2022-07-26T21:16:38.499Z,65918.81
2022-07-26T21:19:05.906Z,65908.59
2022-07-26T21:21:33.967Z,65912.72
2022-07-26T21:24:00.329Z,65903.34
2022-07-26T21:26:26.804Z,65897.25
2022-07-26T21:28:53.179Z,65901.53
2022-07-26T21:33:47.384Z,65887.06
2022-07-26T21:38:41.480Z,65887.06
2022-07-26T21:41:07.852Z,65878.84
2022-07-26T21:43:34.436Z,65881.66
2022-07-26T21:46:00.850Z,65874.41
2022-07-26T21:48:27.673Z,65875.38
2022-07-26T21:50:54.061Z,65873.69
2022-07-26T21:53:20.443Z,65864.38
2022-07-26T21:55:46.896Z,65864.94
2022-07-26T21:58:13.305Z,65882.97
2022-07-26T22:00:39.813Z,65853.59
2022-07-26T22:03:07.269Z,65871.28
2022-07-26T22:05:39.712Z,65856.56
2022-07-26T22:08:08.251Z,65854.34
2022-07-26T22:10:35.415Z,65864.44
2022-07-26T22:13:11.096Z,65858.09
2022-07-26T22:18:03.954Z,65850.47
2022-07-26T22:20:31.933Z,65854.75
2022-07-26T22:25:27.354Z,65842.50
2022-07-26T22:32:47.171Z,65828.41
2022-07-26T22:35:13.577Z,65829.69
2022-07-26T22:37:40.052Z,65815.38
2022-07-26T22:40:07.018Z,65825.13
2022-07-26T22:44:59.717Z,65811.53
2022-07-26T22:47:26.367Z,65815.03
2022-07-26T22:49:52.824Z,65816.31
2022-07-26T22:52:19.360Z,65808.72
2022-07-26T22:57:12.020Z,65805.75
2022-07-26T22:59:38.520Z,65795.34
2022-07-26T23:02:04.908Z,65801.28
2022-07-26T23:04:31.294Z,65791.44
2022-07-26T23:06:57.639Z,65788.47
2022-07-26T23:09:25.064Z,65781.41
2022-07-26T23:11:51.428Z,65785.69
2022-07-26T23:16:45.080Z,65779.03
2022-07-26T23:19:11.885Z,65776.41
2022-07-26T23:21:38.565Z,65776.25
2022-07-26T23:24:05.149Z,65766.19
2022-07-26T23:26:31.748Z,65772.34
2022-07-26T23:28:58.126Z,65768.44
2022-07-26T23:33:54.453Z,65762.88
2022-07-26T23:38:48.397Z,65761.44
2022-07-26T23:41:14.776Z,65752.31
2022-07-26T23:43:41.189Z,65745.59
2022-07-26T23:46:07.587Z,65752.72
2022-07-26T23:48:34.030Z,65751.41
2022-07-26T23:51:00.581Z,65743.59
2022-07-26T23:53:27.346Z,65747.31
